sensor_id;sensor_type;location;lat;lon;timestamp;P1;durP1;ratioP1;P2;durP2;ratioP2
45944;SDS011;31655;48.972;10.686;2023-07-13T00:01:12;5.38;;;3.85;;
45944;SDS011;31655;48.972;10.686;2023-07-13T00:03:38;4.65;;;3.38;;
45944;SDS011;31655;48.972;10.686;2023-07-13T00:06:06;4.88;;;3.40;;
45944;SDS011;31655;48.972;10.686;2023-07-13T00:08:32;5.80;;;3.40;;
45944;SDS011;31655;48.972;10.686;2023-07-13T00:10:59;6.72;;;2.17;;
45944;SDS011;31655;48.972;10.686;2023-07-13T00:13:25;7.68;;;3.53;;
45944;SDS011;31655;48.972;10.686;2023-07-13T00:15:51;6.70;;;3.88;;
45944;SDS011;31655;48.972;10.686;2023-07-13T00:18:18;6.07;;;3.88;;
45944;SDS011;31655;48.972;10.686;2023-07-13T00:20:45;9.02;;;4.88;;
45944;SDS011;31655;48.972;10.686;2023-07-13T00:23:11;8.68;;;5.10;;
45944;SDS011;31655;48.972;10.686;2023-07-13T00:25:37;8.65;;;5.03;;
45944;SDS011;31655;48.972;10.686;2023-07-13T00:28:03;8.60;;;4.22;;
45944;SDS011;31655;48.972;10.686;2023-07-13T00:30:29;8.82;;;4.07;;
45944;SDS011;31655;48.972;10.686;2023-07-13T00:32:55;7.95;;;4.50;;
45944;SDS011;31655;48.972;10.686;2023-07-13T00:35:21;5.30;;;4.22;;
45944;SDS011;31655;48.972;10.686;2023-07-13T00:37:47;9.88;;;5.57;;
45944;SDS011;31655;48.972;10.686;2023-07-13T00:40:13;10.80;;;4.68;;
45944;SDS011;31655;48.972;10.686;2023-07-13T00:42:40;7.55;;;4.13;;
45944;SDS011;31655;48.972;10.686;2023-07-13T00:47:39;10.10;;;5.20;;
45944;SDS011;31655;48.972;10.686;2023-07-13T00:50:06;8.55;;;5.47;;
45944;SDS011;31655;48.972;10.686;2023-07-13T00:52:34;10.05;;;4.25;;
45944;SDS011;31655;48.972;10.686;2023-07-13T00:55:02;6.25;;;4.43;;
45944;SDS011;31655;48.972;10.686;2023-07-13T00:57:28;8.43;;;4.15;;
45944;SDS011;31655;48.972;10.686;2023-07-13T00:59:55;8.07;;;4.28;;
45944;SDS011;31655;48.972;10.686;2023-07-13T01:02:24;9.60;;;4.00;;
45944;SDS011;31655;48.972;10.686;2023-07-13T01:04:52;7.05;;;4.65;;
45944;SDS011;31655;48.972;10.686;2023-07-13T01:07:17;8.75;;;4.65;;
45944;SDS011;31655;48.972;10.686;2023-07-13T01:09:44;8.77;;;4.32;;
45944;SDS011;31655;48.972;10.686;2023-07-13T01:12:11;8.73;;;4.88;;
45944;SDS011;31655;48.972;10.686;2023-07-13T01:14:37;7.22;;;4.03;;
45944;SDS011;31655;48.972;10.686;2023-07-13T01:17:04;10.98;;;4.32;;
45944;SDS011;31655;48.972;10.686;2023-07-13T01:19:35;6.32;;;4.22;;
45944;SDS011;31655;48.972;10.686;2023-07-13T01:22:12;8.93;;;3.83;;
45944;SDS011;31655;48.972;10.686;2023-07-13T01:24:40;8.60;;;4.47;;
45944;SDS011;31655;48.972;10.686;2023-07-13T01:27:09;8.40;;;4.00;;
45944;SDS011;31655;48.972;10.686;2023-07-13T01:29:37;7.22;;;3.72;;
45944;SDS011;31655;48.972;10.686;2023-07-13T01:32:11;5.50;;;3.42;;
45944;SDS011;31655;48.972;10.686;2023-07-13T01:34:39;12.13;;;3.65;;
45944;SDS011;31655;48.972;10.686;2023-07-13T01:37:09;5.18;;;3.40;;
45944;SDS011;31655;48.972;10.686;2023-07-13T01:39:35;6.38;;;3.90;;
45944;SDS011;31655;48.972;10.686;2023-07-13T01:42:02;12.95;;;4.28;;
45944;SDS011;31655;48.972;10.686;2023-07-13T01:44:28;8.75;;;4.72;;
45944;SDS011;31655;48.972;10.686;2023-07-13T01:46:54;11.60;;;4.18;;
45944;SDS011;31655;48.972;10.686;2023-07-13T01:49:20;6.68;;;4.13;;
45944;SDS011;31655;48.972;10.686;2023-07-13T01:51:46;6.55;;;3.63;;
45944;SDS011;31655;48.972;10.686;2023-07-13T01:54:12;4.38;;;3.42;;
45944;SDS011;31655;48.972;10.686;2023-07-13T01:56:38;5.15;;;3.85;;
45944;SDS011;31655;48.972;10.686;2023-07-13T01:59:04;9.13;;;3.75;;
45944;SDS011;31655;48.972;10.686;2023-07-13T02:01:30;6.32;;;3.10;;
45944;SDS011;31655;48.972;10.686;2023-07-13T02:03:56;5.43;;;3.78;;
45944;SDS011;31655;48.972;10.686;2023-07-13T02:06:22;7.50;;;2.83;;
45944;SDS011;31655;48.972;10.686;2023-07-13T02:08:48;5.38;;;3.08;;
45944;SDS011;31655;48.972;10.686;2023-07-13T02:11:14;9.00;;;3.60;;
45944;SDS011;31655;48.972;10.686;2023-07-13T02:13:40;6.32;;;3.42;;
45944;SDS011;31655;48.972;10.686;2023-07-13T02:16:06;5.45;;;3.50;;
45944;SDS011;31655;48.972;10.686;2023-07-13T02:18:32;4.20;;;2.47;;
45944;SDS011;31655;48.972;10.686;2023-07-13T02:20:58;3.92;;;2.60;;
45944;SDS011;31655;48.972;10.686;2023-07-13T02:23:24;5.78;;;3.05;;
45944;SDS011;31655;48.972;10.686;2023-07-13T02:25:54;4.63;;;3.03;;
45944;SDS011;31655;48.972;10.686;2023-07-13T02:28:21;7.63;;;3.55;;
45944;SDS011;31655;48.972;10.686;2023-07-13T02:30:46;6.95;;;3.28;;
45944;SDS011;31655;48.972;10.686;2023-07-13T02:33:12;7.55;;;3.60;;
45944;SDS011;31655;48.972;10.686;2023-07-13T02:35:38;5.90;;;2.22;;
45944;SDS011;31655;48.972;10.686;2023-07-13T02:38:04;6.55;;;2.63;;
45944;SDS011;31655;48.972;10.686;2023-07-13T02:40:30;7.53;;;4.05;;
45944;SDS011;31655;48.972;10.686;2023-07-13T02:42:58;7.50;;;3.67;;
45944;SDS011;31655;48.972;10.686;2023-07-13T02:45:24;4.80;;;2.22;;
45944;SDS011;31655;48.972;10.686;2023-07-13T02:47:51;5.60;;;2.50;;
45944;SDS011;31655;48.972;10.686;2023-07-13T02:50:18;10.23;;;3.00;;
45944;SDS011;31655;48.972;10.686;2023-07-13T02:52:44;2.95;;;2.50;;
45944;SDS011;31655;48.972;10.686;2023-07-13T02:55:10;8.38;;;3.97;;
45944;SDS011;31655;48.972;10.686;2023-07-13T02:57:36;3.75;;;2.58;;
45944;SDS011;31655;48.972;10.686;2023-07-13T03:00:03;9.15;;;3.15;;
45944;SDS011;31655;48.972;10.686;2023-07-13T03:02:32;7.80;;;3.85;;
45944;SDS011;31655;48.972;10.686;2023-07-13T03:05:01;7.57;;;2.72;;
45944;SDS011;31655;48.972;10.686;2023-07-13T03:07:29;6.03;;;2.05;;
45944;SDS011;31655;48.972;10.686;2023-07-13T03:09:56;4.25;;;3.30;;
45944;SDS011;31655;48.972;10.686;2023-07-13T03:12:23;3.95;;;2.50;;
45944;SDS011;31655;48.972;10.686;2023-07-13T03:14:50;4.35;;;2.05;;
45944;SDS011;31655;48.972;10.686;2023-07-13T03:17:17;6.35;;;2.05;;
45944;SDS011;31655;48.972;10.686;2023-07-13T03:19:46;5.00;;;2.08;;
45944;SDS011;31655;48.972;10.686;2023-07-13T03:22:19;14.75;;;3.60;;
45944;SDS011;31655;48.972;10.686;2023-07-13T03:24:48;4.40;;;2.40;;
45944;SDS011;31655;48.972;10.686;2023-07-13T03:27:17;6.47;;;1.92;;
45944;SDS011;31655;48.972;10.686;2023-07-13T03:29:43;4.25;;;2.20;;
45944;SDS011;31655;48.972;10.686;2023-07-13T03:32:16;3.50;;;2.20;;
45944;SDS011;31655;48.972;10.686;2023-07-13T03:34:45;4.28;;;2.22;;
45944;SDS011;31655;48.972;10.686;2023-07-13T03:37:12;4.78;;;2.17;;
45944;SDS011;31655;48.972;10.686;2023-07-13T03:39:40;4.78;;;2.42;;
45944;SDS011;31655;48.972;10.686;2023-07-13T03:42:07;3.05;;;2.13;;
45944;SDS011;31655;48.972;10.686;2023-07-13T03:44:33;8.80;;;2.70;;
45944;SDS011;31655;48.972;10.686;2023-07-13T03:47:02;4.22;;;2.00;;
45944;SDS011;31655;48.972;10.686;2023-07-13T03:49:29;6.50;;;3.03;;
45944;SDS011;31655;48.972;10.686;2023-07-13T03:51:55;6.45;;;2.85;;
45944;SDS011;31655;48.972;10.686;2023-07-13T03:54:22;7.68;;;2.40;;
45944;SDS011;31655;48.972;10.686;2023-07-13T03:56:48;5.75;;;2.60;;
45944;SDS011;31655;48.972;10.686;2023-07-13T03:59:14;3.53;;;2.50;;
45944;SDS011;31655;48.972;10.686;2023-07-13T04:01:40;3.90;;;2.78;;
45944;SDS011;31655;48.972;10.686;2023-07-13T04:04:06;5.35;;;3.35;;
45944;SDS011;31655;48.972;10.686;2023-07-13T04:06:32;4.10;;;3.13;;
45944;SDS011;31655;48.972;10.686;2023-07-13T04:08:59;5.95;;;3.35;;
45944;SDS011;31655;48.972;10.686;2023-07-13T04:11:27;6.60;;;3.25;;
45944;SDS011;31655;48.972;10.686;2023-07-13T04:13:54;6.53;;;2.92;;
45944;SDS011;31655;48.972;10.686;2023-07-13T04:16:20;6.97;;;3.47;;
45944;SDS011;31655;48.972;10.686;2023-07-13T04:18:47;4.03;;;3.15;;
45944;SDS011;31655;48.972;10.686;2023-07-13T04:21:13;9.55;;;2.97;;
45944;SDS011;31655;48.972;10.686;2023-07-13T04:23:39;7.07;;;3.20;;
45944;SDS011;31655;48.972;10.686;2023-07-13T04:26:05;4.93;;;3.30;;
45944;SDS011;31655;48.972;10.686;2023-07-13T04:28:31;7.45;;;3.67;;
45944;SDS011;31655;48.972;10.686;2023-07-13T04:30:58;7.32;;;4.60;;
45944;SDS011;31655;48.972;10.686;2023-07-13T04:33:24;6.88;;;3.92;;
45944;SDS011;31655;48.972;10.686;2023-07-13T04:35:50;5.85;;;3.60;;
45944;SDS011;31655;48.972;10.686;2023-07-13T04:38:21;4.53;;;2.88;;
45944;SDS011;31655;48.972;10.686;2023-07-13T04:40:49;4.15;;;2.83;;
45944;SDS011;31655;48.972;10.686;2023-07-13T04:43:17;8.10;;;2.53;;
45944;SDS011;31655;48.972;10.686;2023-07-13T04:45:43;10.30;;;3.85;;
45944;SDS011;31655;48.972;10.686;2023-07-13T04:48:11;5.63;;;2.83;;
45944;SDS011;31655;48.972;10.686;2023-07-13T04:50:37;5.50;;;2.75;;
45944;SDS011;31655;48.972;10.686;2023-07-13T04:53:04;8.65;;;2.90;;
45944;SDS011;31655;48.972;10.686;2023-07-13T04:55:31;8.07;;;2.58;;
45944;SDS011;31655;48.972;10.686;2023-07-13T04:58:00;4.32;;;2.55;;
45944;SDS011;31655;48.972;10.686;2023-07-13T05:00:30;6.53;;;2.78;;
45944;SDS011;31655;48.972;10.686;2023-07-13T06:09:57;4.90;;;3.00;;
45944;SDS011;31655;48.972;10.686;2023-07-13T06:12:24;6.65;;;3.20;;
45944;SDS011;31655;48.972;10.686;2023-07-13T06:14:51;2.75;;;2.20;;
45944;SDS011;31655;48.972;10.686;2023-07-13T06:17:17;6.15;;;3.78;;
45944;SDS011;31655;48.972;10.686;2023-07-13T06:19:43;7.18;;;3.13;;
45944;SDS011;31655;48.972;10.686;2023-07-13T06:22:09;4.88;;;2.42;;
45944;SDS011;31655;48.972;10.686;2023-07-13T06:24:35;6.07;;;2.90;;
45944;SDS011;31655;48.972;10.686;2023-07-13T06:27:01;9.27;;;3.08;;
45944;SDS011;31655;48.972;10.686;2023-07-13T06:29:27;8.98;;;3.58;;
45944;SDS011;31655;48.972;10.686;2023-07-13T06:31:53;3.10;;;2.03;;
45944;SDS011;31655;48.972;10.686;2023-07-13T06:34:19;7.15;;;3.35;;
45944;SDS011;31655;48.972;10.686;2023-07-13T06:36:47;4.72;;;2.65;;
45944;SDS011;31655;48.972;10.686;2023-07-13T06:39:13;6.28;;;2.97;;
45944;SDS011;31655;48.972;10.686;2023-07-13T06:41:41;15.98;;;4.90;;
45944;SDS011;31655;48.972;10.686;2023-07-13T07:25:25;4.72;;;2.58;;
45944;SDS011;31655;48.972;10.686;2023-07-13T07:27:50;3.55;;;2.00;;
45944;SDS011;31655;48.972;10.686;2023-07-13T07:30:16;7.15;;;3.10;;
45944;SDS011;31655;48.972;10.686;2023-07-13T07:32:42;4.53;;;2.47;;
45944;SDS011;31655;48.972;10.686;2023-07-13T07:35:08;4.22;;;2.20;;
45944;SDS011;31655;48.972;10.686;2023-07-13T07:37:34;5.40;;;3.05;;
45944;SDS011;31655;48.972;10.686;2023-07-13T07:40:00;4.38;;;2.22;;
45944;SDS011;31655;48.972;10.686;2023-07-13T07:42:26;3.45;;;2.10;;
45944;SDS011;31655;48.972;10.686;2023-07-13T07:44:52;3.60;;;2.33;;
45944;SDS011;31655;48.972;10.686;2023-07-13T07:47:18;3.75;;;2.45;;
45944;SDS011;31655;48.972;10.686;2023-07-13T07:49:44;10.15;;;2.35;;
45944;SDS011;31655;48.972;10.686;2023-07-13T07:52:10;3.70;;;1.88;;
45944;SDS011;31655;48.972;10.686;2023-07-13T07:54:36;6.88;;;1.95;;
45944;SDS011;31655;48.972;10.686;2023-07-13T07:57:02;9.30;;;2.83;;
45944;SDS011;31655;48.972;10.686;2023-07-13T07:59:28;7.88;;;2.58;;
45944;SDS011;31655;48.972;10.686;2023-07-13T08:01:54;4.47;;;2.38;;
45944;SDS011;31655;48.972;10.686;2023-07-13T08:04:20;8.10;;;2.33;;
45944;SDS011;31655;48.972;10.686;2023-07-13T08:06:49;5.18;;;2.15;;
45944;SDS011;31655;48.972;10.686;2023-07-13T08:09:14;8.02;;;2.88;;
45944;SDS011;31655;48.972;10.686;2023-07-13T08:11:40;4.07;;;2.20;;
45944;SDS011;31655;48.972;10.686;2023-07-13T08:14:06;4.80;;;2.55;;
45944;SDS011;31655;48.972;10.686;2023-07-13T08:16:34;4.78;;;2.83;;
45944;SDS011;31655;48.972;10.686;2023-07-13T08:19:00;6.43;;;2.95;;
45944;SDS011;31655;48.972;10.686;2023-07-13T08:21:26;5.13;;;2.65;;
45944;SDS011;31655;48.972;10.686;2023-07-13T08:23:53;4.38;;;2.00;;
45944;SDS011;31655;48.972;10.686;2023-07-13T08:26:19;6.18;;;2.40;;
45944;SDS011;31655;48.972;10.686;2023-07-13T08:28:45;3.80;;;2.30;;
45944;SDS011;31655;48.972;10.686;2023-07-13T08:31:11;5.07;;;2.35;;
45944;SDS011;31655;48.972;10.686;2023-07-13T08:33:37;5.93;;;2.17;;
45944;SDS011;31655;48.972;10.686;2023-07-13T08:36:03;7.25;;;2.53;;
45944;SDS011;31655;48.972;10.686;2023-07-13T08:38:30;7.15;;;1.92;;
45944;SDS011;31655;48.972;10.686;2023-07-13T08:40:56;3.15;;;2.17;;
45944;SDS011;31655;48.972;10.686;2023-07-13T08:43:25;2.05;;;1.42;;
45944;SDS011;31655;48.972;10.686;2023-07-13T08:46:28;7.55;;;2.53;;
45944;SDS011;31655;48.972;10.686;2023-07-13T08:49:09;2.80;;;1.67;;
45944;SDS011;31655;48.972;10.686;2023-07-13T08:51:41;4.03;;;1.90;;
45944;SDS011;31655;48.972;10.686;2023-07-13T08:54:20;3.67;;;2.13;;
45944;SDS011;31655;48.972;10.686;2023-07-13T08:56:53;6.40;;;2.03;;
45944;SDS011;31655;48.972;10.686;2023-07-13T08:59:20;4.22;;;2.33;;
45944;SDS011;31655;48.972;10.686;2023-07-13T09:04:39;4.13;;;2.33;;
45944;SDS011;31655;48.972;10.686;2023-07-13T09:15:14;6.47;;;2.90;;
45944;SDS011;31655;48.972;10.686;2023-07-13T09:17:49;6.22;;;2.95;;
45944;SDS011;31655;48.972;10.686;2023-07-13T09:22:52;3.83;;;2.72;;
45944;SDS011;31655;48.972;10.686;2023-07-13T09:27:46;5.35;;;2.20;;
45944;SDS011;31655;48.972;10.686;2023-07-13T09:32:39;5.53;;;2.60;;
45944;SDS011;31655;48.972;10.686;2023-07-13T09:35:12;6.10;;;2.42;;
45944;SDS011;31655;48.972;10.686;2023-07-13T09:37:39;3.08;;;1.48;;
45944;SDS011;31655;48.972;10.686;2023-07-13T09:40:07;3.45;;;1.52;;
45944;SDS011;31655;48.972;10.686;2023-07-13T09:43:02;4.35;;;2.75;;
45944;SDS011;31655;48.972;10.686;2023-07-13T09:45:32;6.82;;;3.67;;
45944;SDS011;31655;48.972;10.686;2023-07-13T09:48:20;9.07;;;3.55;;
45944;SDS011;31655;48.972;10.686;2023-07-13T09:50:45;5.60;;;2.78;;
45944;SDS011;31655;48.972;10.686;2023-07-13T09:53:15;4.85;;;2.03;;
45944;SDS011;31655;48.972;10.686;2023-07-13T09:55:43;5.00;;;2.90;;
45944;SDS011;31655;48.972;10.686;2023-07-13T10:00:37;2.42;;;1.75;;
45944;SDS011;31655;48.972;10.686;2023-07-13T10:05:43;5.53;;;2.65;;
45944;SDS011;31655;48.972;10.686;2023-07-13T10:08:24;3.50;;;2.38;;
45944;SDS011;31655;48.972;10.686;2023-07-13T10:10:59;5.90;;;2.97;;
45944;SDS011;31655;48.972;10.686;2023-07-13T10:15:54;3.42;;;2.08;;
45944;SDS011;31655;48.972;10.686;2023-07-13T10:18:21;3.10;;;2.20;;
45944;SDS011;31655;48.972;10.686;2023-07-13T10:20:49;6.72;;;2.53;;
45944;SDS011;31655;48.972;10.686;2023-07-13T10:23:20;5.38;;;3.38;;
45944;SDS011;31655;48.972;10.686;2023-07-13T10:25:48;5.75;;;2.47;;
45944;SDS011;31655;48.972;10.686;2023-07-13T10:28:35;5.10;;;2.30;;
45944;SDS011;31655;48.972;10.686;2023-07-13T10:31:03;4.72;;;2.72;;
45944;SDS011;31655;48.972;10.686;2023-07-13T10:33:36;8.70;;;2.95;;
45944;SDS011;31655;48.972;10.686;2023-07-13T10:36:12;3.83;;;2.33;;
45944;SDS011;31655;48.972;10.686;2023-07-13T10:38:42;4.43;;;2.22;;
45944;SDS011;31655;48.972;10.686;2023-07-13T10:41:10;8.32;;;3.53;;
45944;SDS011;31655;48.972;10.686;2023-07-13T10:43:44;6.47;;;3.63;;
45944;SDS011;31655;48.972;10.686;2023-07-13T10:46:15;6.47;;;2.67;;
45944;SDS011;31655;48.972;10.686;2023-07-13T10:48:44;6.30;;;2.78;;
45944;SDS011;31655;48.972;10.686;2023-07-13T10:51:14;7.20;;;3.40;;
45944;SDS011;31655;48.972;10.686;2023-07-13T10:53:42;9.57;;;3.42;;
45944;SDS011;31655;48.972;10.686;2023-07-13T10:56:28;3.85;;;2.20;;
45944;SDS011;31655;48.972;10.686;2023-07-13T11:01:57;6.28;;;2.63;;
45944;SDS011;31655;48.972;10.686;2023-07-13T11:04:47;4.47;;;2.63;;
45944;SDS011;31655;48.972;10.686;2023-07-13T11:07:22;4.18;;;2.00;;
45944;SDS011;31655;48.972;10.686;2023-07-13T11:09:54;7.07;;;2.10;;
45944;SDS011;31655;48.972;10.686;2023-07-13T11:20:40;5.70;;;1.98;;
45944;SDS011;31655;48.972;10.686;2023-07-13T11:28:03;4.78;;;2.88;;
45944;SDS011;31655;48.972;10.686;2023-07-13T11:30:39;4.60;;;2.50;;
45944;SDS011;31655;48.972;10.686;2023-07-13T11:33:13;5.65;;;2.70;;
45944;SDS011;31655;48.972;10.686;2023-07-13T11:35:47;3.63;;;2.28;;
45944;SDS011;31655;48.972;10.686;2023-07-13T11:38:27;8.60;;;3.42;;
45944;SDS011;31655;48.972;10.686;2023-07-13T11:40:58;6.45;;;2.50;;
45944;SDS011;31655;48.972;10.686;2023-07-13T11:43:29;4.45;;;2.42;;
45944;SDS011;31655;48.972;10.686;2023-07-13T11:45:55;6.28;;;3.08;;
45944;SDS011;31655;48.972;10.686;2023-07-13T11:48:23;10.13;;;4.45;;
45944;SDS011;31655;48.972;10.686;2023-07-13T11:51:03;10.85;;;5.30;;
45944;SDS011;31655;48.972;10.686;2023-07-13T11:53:39;6.32;;;3.15;;
45944;SDS011;31655;48.972;10.686;2023-07-13T11:56:10;10.43;;;2.90;;
45944;SDS011;31655;48.972;10.686;2023-07-13T11:58:36;4.75;;;2.20;;
45944;SDS011;31655;48.972;10.686;2023-07-13T12:01:02;6.82;;;4.43;;
45944;SDS011;31655;48.972;10.686;2023-07-13T12:06:19;7.57;;;2.95;;
45944;SDS011;31655;48.972;10.686;2023-07-13T12:08:49;6.18;;;2.85;;
45944;SDS011;31655;48.972;10.686;2023-07-13T12:11:17;3.75;;;2.55;;
45944;SDS011;31655;48.972;10.686;2023-07-13T12:13:43;5.22;;;2.45;;
45944;SDS011;31655;48.972;10.686;2023-07-13T12:16:11;3.35;;;1.98;;
45944;SDS011;31655;48.972;10.686;2023-07-13T12:18:42;6.45;;;2.85;;
45944;SDS011;31655;48.972;10.686;2023-07-13T12:21:13;4.57;;;2.70;;
45944;SDS011;31655;48.972;10.686;2023-07-13T12:23:47;2.80;;;1.85;;
45944;SDS011;31655;48.972;10.686;2023-07-13T12:26:16;6.57;;;2.10;;
45944;SDS011;31655;48.972;10.686;2023-07-13T12:28:45;5.15;;;2.72;;
45944;SDS011;31655;48.972;10.686;2023-07-13T12:31:25;4.32;;;2.72;;
45944;SDS011;31655;48.972;10.686;2023-07-13T12:34:25;6.05;;;2.53;;
45944;SDS011;31655;48.972;10.686;2023-07-13T12:36:54;5.00;;;2.17;;
45944;SDS011;31655;48.972;10.686;2023-07-13T12:44:52;3.78;;;2.95;;
45944;SDS011;31655;48.972;10.686;2023-07-13T12:47:24;8.45;;;4.65;;
45944;SDS011;31655;48.972;10.686;2023-07-13T12:49:53;5.28;;;3.00;;
45944;SDS011;31655;48.972;10.686;2023-07-13T12:52:28;7.72;;;3.22;;
45944;SDS011;31655;48.972;10.686;2023-07-13T12:55:07;7.25;;;3.53;;
45944;SDS011;31655;48.972;10.686;2023-07-13T12:57:40;2.83;;;2.08;;
45944;SDS011;31655;48.972;10.686;2023-07-13T13:02:55;9.30;;;3.15;;
45944;SDS011;31655;48.972;10.686;2023-07-13T13:05:22;5.35;;;3.00;;
45944;SDS011;31655;48.972;10.686;2023-07-13T13:07:51;7.03;;;3.13;;
45944;SDS011;31655;48.972;10.686;2023-07-13T13:10:17;5.40;;;3.20;;
45944;SDS011;31655;48.972;10.686;2023-07-13T13:12:43;7.75;;;3.15;;
45944;SDS011;31655;48.972;10.686;2023-07-13T13:15:09;9.93;;;3.88;;
45944;SDS011;31655;48.972;10.686;2023-07-13T13:17:37;7.25;;;4.63;;
45944;SDS011;31655;48.972;10.686;2023-07-13T13:20:19;7.72;;;3.33;;
45944;SDS011;31655;48.972;10.686;2023-07-13T13:22:46;7.22;;;2.63;;
45944;SDS011;31655;48.972;10.686;2023-07-13T13:25:13;5.18;;;3.38;;
45944;SDS011;31655;48.972;10.686;2023-07-13T13:27:43;5.35;;;3.00;;
45944;SDS011;31655;48.972;10.686;2023-07-13T13:32:38;7.47;;;2.90;;
45944;SDS011;31655;48.972;10.686;2023-07-13T13:35:04;6.47;;;3.40;;
45944;SDS011;31655;48.972;10.686;2023-07-13T13:37:31;7.00;;;3.78;;
45944;SDS011;31655;48.972;10.686;2023-07-13T13:39:57;8.88;;;3.72;;
45944;SDS011;31655;48.972;10.686;2023-07-13T13:42:23;7.32;;;3.88;;
45944;SDS011;31655;48.972;10.686;2023-07-13T13:44:49;7.60;;;4.20;;
45944;SDS011;31655;48.972;10.686;2023-07-13T13:47:31;13.13;;;5.13;;
45944;SDS011;31655;48.972;10.686;2023-07-13T13:50:01;5.72;;;3.38;;
45944;SDS011;31655;48.972;10.686;2023-07-13T13:52:27;7.28;;;3.95;;
45944;SDS011;31655;48.972;10.686;2023-07-13T13:54:53;9.40;;;4.32;;
45944;SDS011;31655;48.972;10.686;2023-07-13T13:57:21;5.05;;;3.08;;
45944;SDS011;31655;48.972;10.686;2023-07-13T13:59:48;9.50;;;4.20;;
45944;SDS011;31655;48.972;10.686;2023-07-13T14:02:27;6.90;;;2.33;;
45944;SDS011;31655;48.972;10.686;2023-07-13T14:04:59;8.80;;;2.80;;
45944;SDS011;31655;48.972;10.686;2023-07-13T14:07:27;3.92;;;2.65;;
45944;SDS011;31655;48.972;10.686;2023-07-13T14:09:56;6.13;;;3.05;;
45944;SDS011;31655;48.972;10.686;2023-07-13T14:12:23;5.75;;;3.28;;
45944;SDS011;31655;48.972;10.686;2023-07-13T14:14:53;3.25;;;2.28;;
45944;SDS011;31655;48.972;10.686;2023-07-13T14:17:21;6.13;;;2.70;;
45944;SDS011;31655;48.972;10.686;2023-07-13T14:19:52;4.63;;;2.40;;
45944;SDS011;31655;48.972;10.686;2023-07-13T14:22:25;7.50;;;2.88;;
45944;SDS011;31655;48.972;10.686;2023-07-13T14:24:54;5.93;;;2.90;;
45944;SDS011;31655;48.972;10.686;2023-07-13T14:27:20;4.70;;;2.60;;
45944;SDS011;31655;48.972;10.686;2023-07-13T14:29:47;5.47;;;2.60;;
45944;SDS011;31655;48.972;10.686;2023-07-13T14:32:13;6.38;;;2.72;;
45944;SDS011;31655;48.972;10.686;2023-07-13T14:34:39;4.90;;;2.60;;
45944;SDS011;31655;48.972;10.686;2023-07-13T14:37:08;4.13;;;2.33;;
45944;SDS011;31655;48.972;10.686;2023-07-13T14:39:38;3.80;;;3.03;;
45944;SDS011;31655;48.972;10.686;2023-07-13T14:42:04;3.42;;;2.65;;
45944;SDS011;31655;48.972;10.686;2023-07-13T14:44:30;8.80;;;2.47;;
45944;SDS011;31655;48.972;10.686;2023-07-13T14:46:57;4.63;;;2.50;;
45944;SDS011;31655;48.972;10.686;2023-07-13T14:49:28;7.13;;;2.50;;
45944;SDS011;31655;48.972;10.686;2023-07-13T14:51:58;5.07;;;3.28;;
45944;SDS011;31655;48.972;10.686;2023-07-13T14:54:26;6.50;;;3.08;;
45944;SDS011;31655;48.972;10.686;2023-07-13T14:56:52;5.32;;;2.85;;
45944;SDS011;31655;48.972;10.686;2023-07-13T14:59:22;3.83;;;2.42;;
45944;SDS011;31655;48.972;10.686;2023-07-13T15:01:49;5.50;;;2.63;;
45944;SDS011;31655;48.972;10.686;2023-07-13T15:04:15;4.05;;;2.45;;
45944;SDS011;31655;48.972;10.686;2023-07-13T15:09:40;5.57;;;3.00;;
45944;SDS011;31655;48.972;10.686;2023-07-13T15:12:06;5.53;;;2.47;;
45944;SDS011;31655;48.972;10.686;2023-07-13T15:14:33;3.65;;;2.55;;
45944;SDS011;31655;48.972;10.686;2023-07-13T15:16:58;5.00;;;3.08;;
45944;SDS011;31655;48.972;10.686;2023-07-13T15:19:25;5.93;;;2.83;;
45944;SDS011;31655;48.972;10.686;2023-07-13T15:21:52;5.53;;;2.50;;
45944;SDS011;31655;48.972;10.686;2023-07-13T15:24:20;3.60;;;2.42;;
45944;SDS011;31655;48.972;10.686;2023-07-13T15:26:46;4.32;;;2.88;;
45944;SDS011;31655;48.972;10.686;2023-07-13T15:29:14;4.15;;;3.08;;
45944;SDS011;31655;48.972;10.686;2023-07-13T15:31:40;4.70;;;2.67;;
45944;SDS011;31655;48.972;10.686;2023-07-13T15:34:15;4.05;;;2.13;;
45944;SDS011;31655;48.972;10.686;2023-07-13T15:36:45;7.20;;;2.80;;
45944;SDS011;31655;48.972;10.686;2023-07-13T15:39:15;3.63;;;2.33;;
45944;SDS011;31655;48.972;10.686;2023-07-13T15:41:41;2.28;;;2.00;;
45944;SDS011;31655;48.972;10.686;2023-07-13T15:44:21;7.38;;;3.20;;
45944;SDS011;31655;48.972;10.686;2023-07-13T15:46:55;5.45;;;2.95;;
45944;SDS011;31655;48.972;10.686;2023-07-13T15:49:21;5.55;;;2.67;;
45944;SDS011;31655;48.972;10.686;2023-07-13T15:51:47;4.35;;;2.67;;
45944;SDS011;31655;48.972;10.686;2023-07-13T15:54:15;4.82;;;3.13;;
45944;SDS011;31655;48.972;10.686;2023-07-13T15:56:43;5.43;;;2.67;;
45944;SDS011;31655;48.972;10.686;2023-07-13T15:59:10;3.60;;;2.80;;
45944;SDS011;31655;48.972;10.686;2023-07-13T16:01:39;4.57;;;2.25;;
45944;SDS011;31655;48.972;10.686;2023-07-13T16:04:08;4.18;;;2.50;;
45944;SDS011;31655;48.972;10.686;2023-07-13T16:06:36;4.82;;;2.80;;
45944;SDS011;31655;48.972;10.686;2023-07-13T16:09:04;6.07;;;3.33;;
45944;SDS011;31655;48.972;10.686;2023-07-13T16:11:35;6.70;;;2.65;;
45944;SDS011;31655;48.972;10.686;2023-07-13T16:14:03;4.22;;;2.47;;
45944;SDS011;31655;48.972;10.686;2023-07-13T16:16:29;5.95;;;2.95;;
45944;SDS011;31655;48.972;10.686;2023-07-13T16:19:02;4.90;;;2.78;;
45944;SDS011;31655;48.972;10.686;2023-07-13T16:21:31;8.05;;;4.18;;
45944;SDS011;31655;48.972;10.686;2023-07-13T16:23:58;5.10;;;2.97;;
45944;SDS011;31655;48.972;10.686;2023-07-13T16:26:28;5.78;;;3.05;;
45944;SDS011;31655;48.972;10.686;2023-07-13T16:28:58;9.75;;;4.18;;
45944;SDS011;31655;48.972;10.686;2023-07-13T16:31:30;3.85;;;2.65;;
45944;SDS011;31655;48.972;10.686;2023-07-13T16:33:57;6.82;;;3.80;;
45944;SDS011;31655;48.972;10.686;2023-07-13T16:36:26;5.65;;;2.95;;
45944;SDS011;31655;48.972;10.686;2023-07-13T16:38:53;5.95;;;2.90;;
45944;SDS011;31655;48.972;10.686;2023-07-13T16:41:20;5.40;;;3.45;;
45944;SDS011;31655;48.972;10.686;2023-07-13T16:43:46;5.40;;;2.28;;
45944;SDS011;31655;48.972;10.686;2023-07-13T16:46:12;5.45;;;2.13;;
45944;SDS011;31655;48.972;10.686;2023-07-13T16:48:45;5.00;;;2.40;;
45944;SDS011;31655;48.972;10.686;2023-07-13T16:51:11;3.90;;;2.35;;
45944;SDS011;31655;48.972;10.686;2023-07-13T16:53:37;4.03;;;2.33;;
45944;SDS011;31655;48.972;10.686;2023-07-13T16:56:08;6.80;;;2.40;;
45944;SDS011;31655;48.972;10.686;2023-07-13T16:58:41;7.05;;;3.20;;
45944;SDS011;31655;48.972;10.686;2023-07-13T17:01:07;7.68;;;3.50;;
45944;SDS011;31655;48.972;10.686;2023-07-13T17:03:36;6.18;;;2.83;;
45944;SDS011;31655;48.972;10.686;2023-07-13T17:06:22;4.13;;;2.50;;
45944;SDS011;31655;48.972;10.686;2023-07-13T17:08:49;4.93;;;3.28;;
45944;SDS011;31655;48.972;10.686;2023-07-13T17:11:18;4.35;;;3.03;;
45944;SDS011;31655;48.972;10.686;2023-07-13T17:13:44;4.60;;;2.67;;
45944;SDS011;31655;48.972;10.686;2023-07-13T17:16:11;5.25;;;2.45;;
45944;SDS011;31655;48.972;10.686;2023-07-13T17:18:38;6.78;;;3.05;;
45944;SDS011;31655;48.972;10.686;2023-07-13T17:21:04;6.53;;;2.55;;
45944;SDS011;31655;48.972;10.686;2023-07-13T17:23:32;4.28;;;2.80;;
45944;SDS011;31655;48.972;10.686;2023-07-13T17:25:58;9.60;;;4.30;;
45944;SDS011;31655;48.972;10.686;2023-07-13T17:28:24;7.05;;;3.45;;
45944;SDS011;31655;48.972;10.686;2023-07-13T17:30:54;5.78;;;3.00;;